Time;durP1;ratioP1;P1;durP2;ratioP2;P2;SDS_P1;SDS_P2;PMS_P1;PMS_P2;Temp;Humidity;BMP_temperature;BMP_pressure;BME280_temperature;BME280_humidity;BME280_pressure;Samples;Min_cycle;Max_cycle;Signal;HPM_P1;HPM_P2
2022/01/11 00:02:08;;;;;;;28.52;13.15;;;;;;;;;;5095348;28;20477;-63
2022/01/11 00:04:34;;;;;;;34.22;14.57;;;;;;;;;;5096552;28;20052;-65
2022/01/11 00:07:03;;;;;;;31.52;14.55;;;;;;;;;;5096512;28;20032;-65
2022/01/11 00:09:34;;;;;;;31.42;14.48;;;;;;;;;;5096184;28;20494;-64
2022/01/11 00:12:00;;;;;;;30.63;14.13;;;;;;;;;;5078386;28;20036;-64
2022/01/11 00:14:27;;;;;;;28.42;13.40;;;;;;;;;;5096870;28;20099;-64
2022/01/11 00:16:53;;;;;;;26.52;13.18;;;;;;;;;;5096184;28;20028;-64
2022/01/11 00:19:19;;;;;;;25.35;12.25;;;;;;;;;;5096209;28;20027;-65
2022/01/11 00:21:47;;;;;;;24.90;13.02;;;;;;;;;;5096762;28;20043;-63
2022/01/11 00:24:33;;;;;;;30.77;12.85;;;;;;;;;;5096102;28;20020;-64
2022/01/11 00:27:01;;;;;;;33.50;13.32;;;;;;;;;;5096284;28;20106;-64
2022/01/11 00:29:28;;;;;;;27.02;12.55;;;;;;;;;;5096301;28;20390;-63
2022/01/11 00:31:57;;;;;;;26.98;11.65;;;;;;;;;;5096081;28;20024;-64
2022/01/11 00:34:25;;;;;;;30.15;13.30;;;;;;;;;;5096215;28;20016;-64
2022/01/11 00:36:51;;;;;;;28.00;12.85;;;;;;;;;;5095535;28;20153;-64
2022/01/11 00:39:18;;;;;;;28.83;12.85;;;;;;;;;;5096152;28;20020;-63
2022/01/11 00:41:46;;;;;;;27.52;12.07;;;;;;;;;;5095783;28;20020;-64
2022/01/11 00:44:13;;;;;;;26.45;13.10;;;;;;;;;;5095769;28;20446;-64
2022/01/11 00:46:40;;;;;;;26.65;13.65;;;;;;;;;;5096098;28;20055;-64
2022/01/11 00:49:07;;;;;;;28.58;12.75;;;;;;;;;;5095637;28;20020;-64
2022/01/11 00:51:33;;;;;;;27.13;12.95;;;;;;;;;;5095542;28;20016;-64
2022/01/11 00:53:59;;;;;;;28.45;12.70;;;;;;;;;;5095714;28;20024;-63
2022/01/11 00:56:25;;;;;;;30.05;13.07;;;;;;;;;;5095796;28;20020;-63
2022/01/11 00:58:51;;;;;;;26.90;12.25;;;;;;;;;;5095394;28;20460;-63
2022/01/11 01:01:18;;;;;;;29.05;12.93;;;;;;;;;;5095754;28;20035;-62
2022/01/11 01:03:44;;;;;;;26.60;12.48;;;;;;;;;;5095467;28;20403;-64
2022/01/11 01:06:10;;;;;;;28.13;13.05;;;;;;;;;;5094958;28;20369;-62
2022/01/11 01:08:36;;;;;;;26.52;13.52;;;;;;;;;;5095562;28;20357;-63
2022/01/11 01:11:03;;;;;;;33.45;13.90;;;;;;;;;;5095552;28;20529;-63
2022/01/11 01:13:29;;;;;;;27.48;13.18;;;;;;;;;;5094870;28;20027;-62
2022/01/11 01:15:56;;;;;;;31.33;14.18;;;;;;;;;;5095400;28;20028;-63
2022/01/11 01:18:25;;;;;;;29.95;14.05;;;;;;;;;;5095005;28;20029;-63
2022/01/11 01:20:52;;;;;;;25.67;13.15;;;;;;;;;;5095644;28;20069;-63
2022/01/11 01:23:18;;;;;;;30.42;14.43;;;;;;;;;;5095354;28;20472;-62
2022/01/11 01:25:45;;;;;;;28.48;13.05;;;;;;;;;;5095140;28;20034;-62
2022/01/11 01:28:12;;;;;;;28.58;13.77;;;;;;;;;;5094861;28;20046;-63
2022/01/11 01:30:39;;;;;;;30.90;13.95;;;;;;;;;;5095069;28;20020;-65
2022/01/11 01:33:05;;;;;;;28.70;12.15;;;;;;;;;;5095141;28;20020;-63
2022/01/11 01:35:39;;;;;;;31.30;13.68;;;;;;;;;;5094727;28;20112;-63
2022/01/11 01:38:07;;;;;;;25.50;11.65;;;;;;;;;;5094573;28;20043;-63
2022/01/11 01:40:42;;;;;;;26.27;13.27;;;;;;;;;;5094612;28;20027;-64
2022/01/11 01:43:09;;;;;;;27.52;12.52;;;;;;;;;;5094961;28;20019;-62
2022/01/11 01:45:36;;;;;;;26.17;11.10;;;;;;;;;;5094891;28;20046;-63
2022/01/11 01:48:03;;;;;;;26.05;12.25;;;;;;;;;;5094230;28;20027;-64
2022/01/11 01:50:30;;;;;;;23.35;10.82;;;;;;;;;;5094989;28;20023;-63
2022/01/11 01:52:57;;;;;;;23.67;11.70;;;;;;;;;;5094877;28;20025;-63
2022/01/11 01:55:24;;;;;;;23.02;10.57;;;;;;;;;;5076125;28;20509;-63
2022/01/11 01:57:51;;;;;;;23.23;11.02;;;;;;;;;;5094500;28;20055;-63
2022/01/11 02:00:18;;;;;;;23.33;11.63;;;;;;;;;;5094578;28;20020;-63
2022/01/11 02:02:44;;;;;;;22.25;11.68;;;;;;;;;;5094403;28;20461;-64
2022/01/11 02:05:11;;;;;;;21.23;11.23;;;;;;;;;;5094575;28;20024;-63
2022/01/11 02:07:37;;;;;;;23.38;10.07;;;;;;;;;;5093720;28;20026;-63
2022/01/11 02:10:05;;;;;;;27.10;11.27;;;;;;;;;;5094446;28;20028;-63
2022/01/11 02:12:31;;;;;;;24.52;11.55;;;;;;;;;;5093907;28;20381;-65
2022/01/11 02:14:57;;;;;;;29.30;12.02;;;;;;;;;;5093795;28;20039;-64
2022/01/11 02:17:27;;;;;;;27.05;11.90;;;;;;;;;;5093987;28;20035;-64
2022/01/11 02:19:54;;;;;;;23.08;11.13;;;;;;;;;;5094017;28;20385;-64
2022/01/11 02:22:21;;;;;;;30.17;12.10;;;;;;;;;;5093995;28;20038;-64
2022/01/11 02:24:47;;;;;;;33.35;12.50;;;;;;;;;;5093892;28;20469;-65
2022/01/11 02:27:13;;;;;;;29.65;13.07;;;;;;;;;;5094160;28;20032;-65
2022/01/11 02:29:39;;;;;;;28.58;12.73;;;;;;;;;;5093819;28;20020;-64
2022/01/11 02:32:05;;;;;;;32.47;13.75;;;;;;;;;;5094135;28;20026;-64
2022/01/11 02:34:31;;;;;;;32.75;14.18;;;;;;;;;;5094613;28;20461;-64
2022/01/11 02:36:58;;;;;;;32.78;14.98;;;;;;;;;;5093430;28;20032;-64
2022/01/11 02:39:24;;;;;;;36.22;14.25;;;;;;;;;;5094189;28;20016;-64
2022/01/11 02:41:51;;;;;;;31.55;14.27;;;;;;;;;;5093722;28;20154;-64
2022/01/11 02:44:17;;;;;;;37.03;15.73;;;;;;;;;;5092874;28;20095;-64
2022/01/11 02:46:43;;;;;;;38.17;16.15;;;;;;;;;;5093816;28;20472;-63
2022/01/11 02:49:10;;;;;;;33.22;14.05;;;;;;;;;;5093862;28;20077;-64
2022/01/11 02:51:36;;;;;;;33.25;15.38;;;;;;;;;;5093256;28;20024;-63
2022/01/11 02:54:05;;;;;;;31.45;13.85;;;;;;;;;;5093829;28;20016;-64
2022/01/11 02:56:31;;;;;;;34.22;14.48;;;;;;;;;;5092978;28;20054;-64
2022/01/11 02:58:57;;;;;;;34.55;14.85;;;;;;;;;;5093707;28;20043;-64
2022/01/11 03:01:23;;;;;;;32.53;14.60;;;;;;;;;;5094116;28;20028;-64
2022/01/11 03:03:51;;;;;;;42.58;16.00;;;;;;;;;;5093470;28;20022;-64
2022/01/11 03:06:17;;;;;;;38.80;15.98;;;;;;;;;;5075486;28;20020;-64
2022/01/11 03:08:44;;;;;;;28.17;12.65;;;;;;;;;;5093340;28;20430;-64
2022/01/11 03:11:14;;;;;;;26.17;11.60;;;;;;;;;;5093395;28;20031;-65
2022/01/11 03:13:43;;;;;;;27.25;12.07;;;;;;;;;;5093335;28;20354;-64
2022/01/11 03:16:09;;;;;;;27.45;13.23;;;;;;;;;;5093520;28;20055;-64
2022/01/11 03:18:35;;;;;;;28.25;14.45;;;;;;;;;;5093571;28;20036;-65
2022/01/11 03:21:02;;;;;;;32.20;14.15;;;;;;;;;;5097694;28;20028;-64
2022/01/11 03:23:28;;;;;;;28.67;12.25;;;;;;;;;;5097928;28;20073;-64
2022/01/11 03:25:55;;;;;;;26.13;12.05;;;;;;;;;;5097557;28;20024;-64
2022/01/11 03:28:21;;;;;;;32.40;14.30;;;;;;;;;;5097518;28;20456;-64
2022/01/11 03:30:48;;;;;;;27.42;13.48;;;;;;;;;;5097325;28;20077;-63
2022/01/11 03:33:15;;;;;;;28.88;12.77;;;;;;;;;;5096847;28;20097;-63
2022/01/11 03:35:42;;;;;;;27.02;12.68;;;;;;;;;;5079518;28;20111;-62
2022/01/11 03:38:09;;;;;;;23.52;12.52;;;;;;;;;;5093040;28;20032;-63
2022/01/11 03:40:35;;;;;;;30.05;12.70;;;;;;;;;;5092441;28;20035;-63
2022/01/11 03:43:01;;;;;;;23.63;12.25;;;;;;;;;;5097243;28;20101;-62
2022/01/11 03:45:28;;;;;;;27.90;11.88;;;;;;;;;;5096936;28;20076;-63
2022/01/11 03:47:56;;;;;;;26.27;12.43;;;;;;;;;;5096897;28;20020;-62
2022/01/11 03:50:22;;;;;;;26.88;11.77;;;;;;;;;;5097053;28;20024;-62
2022/01/11 03:52:57;;;;;;;25.25;12.40;;;;;;;;;;5096506;28;20024;-62
2022/01/11 03:55:42;;;;;;;29.80;12.57;;;;;;;;;;5096718;28;20024;-63
2022/01/11 03:58:08;;;;;;;24.88;11.88;;;;;;;;;;5097048;28;20048;-63
2022/01/11 04:00:34;;;;;;;25.40;12.25;;;;;;;;;;5096285;28;20026;-64
2022/01/11 04:03:01;;;;;;;25.48;12.27;;;;;;;;;;5096894;28;20423;-63
2022/01/11 04:05:27;;;;;;;30.98;13.82;;;;;;;;;;5096828;28;20031;-62
2022/01/11 04:07:53;;;;;;;26.75;12.60;;;;;;;;;;5096771;28;20020;-64
2022/01/11 04:10:19;;;;;;;25.23;12.57;;;;;;;;;;5097040;28;20059;-63
2022/01/11 04:12:48;;;;;;;29.60;13.55;;;;;;;;;;5096629;28;20025;-62
2022/01/11 04:15:14;;;;;;;36.38;15.38;;;;;;;;;;5096345;28;20021;-63
2022/01/11 04:17:40;;;;;;;32.72;14.07;;;;;;;;;;5096502;28;20029;-63
2022/01/11 04:20:07;;;;;;;30.98;12.65;;;;;;;;;;5096886;28;20020;-64
2022/01/11 04:22:33;;;;;;;28.90;13.65;;;;;;;;;;5095952;28;20022;-63
2022/01/11 04:24:59;;;;;;;29.90;14.52;;;;;;;;;;5096430;28;20020;-65
2022/01/11 04:27:25;;;;;;;26.42;13.10;;;;;;;;;;5096332;28;20106;-64
2022/01/11 04:29:52;;;;;;;30.20;12.43;;;;;;;;;;5095532;28;20376;-64
2022/01/11 04:32:18;;;;;;;31.80;14.20;;;;;;;;;;5091345;28;20035;-64
2022/01/11 04:34:44;;;;;;;30.75;13.60;;;;;;;;;;5075684;28;20082;-64
2022/01/11 04:37:10;;;;;;;32.53;15.38;;;;;;;;;;5075658;28;20036;-64
2022/01/11 04:39:36;;;;;;;39.63;16.35;;;;;;;;;;5075885;28;20052;-63
2022/01/11 04:42:02;;;;;;;34.47;15.27;;;;;;;;;;5075915;28;20028;-64
2022/01/11 04:44:29;;;;;;;33.40;14.68;;;;;;;;;;5075929;28;20081;-64
2022/01/11 04:46:55;;;;;;;29.73;15.10;;;;;;;;;;5075459;28;20021;-63
2022/01/11 04:49:21;;;;;;;30.98;14.43;;;;;;;;;;5075401;28;20032;-63
2022/01/11 04:51:47;;;;;;;32.17;14.38;;;;;;;;;;5075426;28;20020;-63
2022/01/11 04:54:14;;;;;;;34.05;15.15;;;;;;;;;;5075345;28;20021;-64
2022/01/11 04:56:40;;;;;;;34.22;14.80;;;;;;;;;;5074781;28;20021;-64
2022/01/11 04:59:06;;;;;;;38.63;18.25;;;;;;;;;;5075412;28;20466;-64
2022/01/11 05:01:33;;;;;;;32.50;15.10;;;;;;;;;;5075561;28;20394;-63
2022/01/11 05:03:59;;;;;;;28.85;13.73;;;;;;;;;;5074821;28;20104;-63
2022/01/11 05:06:25;;;;;;;33.00;15.43;;;;;;;;;;5075425;28;20413;-64
2022/01/11 05:08:51;;;;;;;31.42;16.17;;;;;;;;;;5075316;28;20395;-64
2022/01/11 05:11:18;;;;;;;34.10;14.75;;;;;;;;;;5074997;28;20027;-65
2022/01/11 05:13:44;;;;;;;31.30;14.95;;;;;;;;;;5075190;28;20031;-64
2022/01/11 05:16:10;;;;;;;30.98;15.10;;;;;;;;;;5075393;28;20035;-64
2022/01/11 05:18:37;;;;;;;37.80;17.40;;;;;;;;;;5074446;28;20111;-64
2022/01/11 05:21:04;;;;;;;34.33;14.65;;;;;;;;;;5075055;28;20019;-66
2022/01/11 05:23:30;;;;;;;32.03;14.82;;;;;;;;;;5073856;28;20066;-64
2022/01/11 05:25:57;;;;;;;30.25;14.48;;;;;;;;;;5074796;28;20096;-64
2022/01/11 05:28:23;;;;;;;35.60;16.52;;;;;;;;;;5073120;28;20032;-64
2022/01/11 05:30:49;;;;;;;32.03;13.20;;;;;;;;;;5073476;28;20030;-64
2022/01/11 05:33:15;;;;;;;34.65;14.95;;;;;;;;;;5074430;28;20025;-64
2022/01/11 05:35:42;;;;;;;38.53;16.35;;;;;;;;;;5075092;28;20029;-64
2022/01/11 05:38:08;;;;;;;39.42;17.08;;;;;;;;;;5081419;28;20032;-63
2022/01/11 05:40:34;;;;;;;61.33;24.25;;;;;;;;;;5074530;28;20487;-64
2022/01/11 05:43:00;;;;;;;37.92;16.50;;;;;;;;;;5073690;28;20031;-65
2022/01/11 05:45:26;;;;;;;35.58;15.45;;;;;;;;;;5074116;28;20020;-64
2022/01/11 05:47:52;;;;;;;50.38;21.30;;;;;;;;;;5074093;28;20021;-64
2022/01/11 05:50:20;;;;;;;64.97;28.38;;;;;;;;;;5074524;28;20063;-64
2022/01/11 05:52:46;;;;;;;51.25;21.17;;;;;;;;;;5078022;28;20081;-64
2022/01/11 05:55:13;;;;;;;67.60;27.20;;;;;;;;;;5092804;28;20024;-65
2022/01/11 05:57:43;;;;;;;59.03;22.08;;;;;;;;;;5074426;28;20044;-65
2022/01/11 06:00:11;;;;;;;40.00;17.73;;;;;;;;;;5073795;28;20158;-64
2022/01/11 06:02:37;;;;;;;65.97;25.55;;;;;;;;;;5084977;28;20457;-64
2022/01/11 06:05:04;;;;;;;62.50;24.40;;;;;;;;;;5094230;28;20533;-64
2022/01/11 06:07:30;;;;;;;59.70;23.75;;;;;;;;;;5078015;28;20073;-64
2022/01/11 06:09:56;;;;;;;53.33;23.42;;;;;;;;;;5074068;28;20025;-64
2022/01/11 06:12:22;;;;;;;60.75;25.50;;;;;;;;;;5081597;28;20029;-63
2022/01/11 06:14:48;;;;;;;70.35;27.98;;;;;;;;;;5079462;28;20025;-64
2022/01/11 06:17:14;;;;;;;51.85;21.35;;;;;;;;;;5078047;28;20068;-65
2022/01/11 06:19:40;;;;;;;70.60;28.10;;;;;;;;;;5080621;28;20016;-65
2022/01/11 06:22:07;;;;;;;64.60;27.55;;;;;;;;;;5073968;28;20028;-64
2022/01/11 06:24:33;;;;;;;54.75;23.33;;;;;;;;;;5073957;28;20070;-66
2022/01/11 06:26:59;;;;;;;53.45;23.15;;;;;;;;;;5073997;28;20017;-64
2022/01/11 06:29:25;;;;;;;38.50;19.15;;;;;;;;;;5073838;28;20024;-63
2022/01/11 06:31:51;;;;;;;38.97;18.08;;;;;;;;;;5056101;28;20021;-63
2022/01/11 06:34:17;;;;;;;40.42;17.48;;;;;;;;;;5087360;28;20358;-63
2022/01/11 06:36:44;;;;;;;48.08;20.50;;;;;;;;;;5073530;28;20025;-65
2022/01/11 06:39:10;;;;;;;42.08;19.13;;;;;;;;;;5073659;28;20428;-64
2022/01/11 06:41:36;;;;;;;37.28;19.00;;;;;;;;;;5073412;28;20043;-64
2022/01/11 06:44:02;;;;;;;34.70;18.48;;;;;;;;;;5073930;28;20016;-65
2022/01/11 06:46:28;;;;;;;37.38;18.48;;;;;;;;;;5072248;28;20029;-64
2022/01/11 06:48:57;;;;;;;37.83;19.08;;;;;;;;;;5072866;28;20028;-64
2022/01/11 06:51:23;;;;;;;36.45;17.30;;;;;;;;;;5073554;28;20016;-64
2022/01/11 06:53:49;;;;;;;44.00;18.88;;;;;;;;;;5073363;28;20016;-64
2022/01/11 06:56:17;;;;;;;41.72;19.95;;;;;;;;;;5073120;28;20034;-65
2022/01/11 06:58:43;;;;;;;38.80;18.80;;;;;;;;;;5071363;28;20052;-64
2022/01/11 07:01:10;;;;;;;38.65;19.13;;;;;;;;;;5072000;28;20383;-66
2022/01/11 07:03:36;;;;;;;33.83;17.05;;;;;;;;;;5072621;28;20024;-64
2022/01/11 07:06:03;;;;;;;36.78;19.17;;;;;;;;;;5073035;28;20017;-64
2022/01/11 07:08:29;;;;;;;42.97;19.48;;;;;;;;;;5073151;28;20033;-65
2022/01/11 07:10:55;;;;;;;42.13;20.17;;;;;;;;;;5073256;28;20465;-65
2022/01/11 07:13:22;;;;;;;35.97;19.25;;;;;;;;;;5073500;28;20100;-65
2022/01/11 07:15:48;;;;;;;42.47;21.40;;;;;;;;;;5073364;28;20512;-65
2022/01/11 07:18:14;;;;;;;37.78;18.85;;;;;;;;;;5073326;28;20032;-64
2022/01/11 07:20:43;;;;;;;36.85;18.25;;;;;;;;;;5073072;28;20473;-64
2022/01/11 07:23:11;;;;;;;40.33;18.80;;;;;;;;;;5072814;28;20523;-65
2022/01/11 07:25:37;;;;;;;34.50;18.23;;;;;;;;;;5073633;28;20449;-64
2022/01/11 07:28:03;;;;;;;30.40;16.52;;;;;;;;;;5073337;28;20025;-65
2022/01/11 07:30:30;;;;;;;36.17;17.30;;;;;;;;;;5073511;28;20025;-64
2022/01/11 07:32:56;;;;;;;38.10;19.50;;;;;;;;;;5072935;28;20449;-63
2022/01/11 07:35:23;;;;;;;33.15;17.77;;;;;;;;;;5073498;28;20342;-63
2022/01/11 07:37:50;;;;;;;38.85;20.45;;;;;;;;;;5072743;28;20032;-63
2022/01/11 07:40:16;;;;;;;38.42;19.65;;;;;;;;;;5072912;28;20472;-63
2022/01/11 07:42:42;;;;;;;39.65;20.63;;;;;;;;;;5073404;28;20048;-66
2022/01/11 07:45:09;;;;;;;38.00;18.75;;;;;;;;;;5072791;28;20457;-66
2022/01/11 07:47:35;;;;;;;36.33;16.95;;;;;;;;;;5073885;28;20495;-63
2022/01/11 07:50:01;;;;;;;35.15;18.23;;;;;;;;;;5073102;28;20039;-63
2022/01/11 07:52:27;;;;;;;31.77;17.10;;;;;;;;;;5072725;28;20579;-64
2022/01/11 07:54:53;;;;;;;33.25;17.60;;;;;;;;;;5073153;28;20025;-63
2022/01/11 07:57:20;;;;;;;30.17;16.15;;;;;;;;;;5072558;28;20052;-64
2022/01/11 07:59:46;;;;;;;42.45;17.80;;;;;;;;;;5073024;28;20020;-65
2022/01/11 08:02:12;;;;;;;34.15;15.57;;;;;;;;;;5072694;28;20056;-63
2022/01/11 08:04:38;;;;;;;32.53;16.63;;;;;;;;;;5072906;28;20031;-65
2022/01/11 08:07:05;;;;;;;27.70;14.43;;;;;;;;;;5076759;28;20031;-64
2022/01/11 08:09:31;;;;;;;47.28;20.10;;;;;;;;;;5076338;28;20036;-63
2022/01/11 08:11:58;;;;;;;31.65;17.15;;;;;;;;;;5076388;28;20055;-64
2022/01/11 08:14:25;;;;;;;35.08;16.75;;;;;;;;;;5076305;28;20028;-64
2022/01/11 08:16:51;;;;;;;33.97;16.88;;;;;;;;;;5076097;28;20025;-65
2022/01/11 08:19:17;;;;;;;31.52;16.58;;;;;;;;;;5075905;28;20512;-65
2022/01/11 08:21:43;;;;;;;29.50;15.40;;;;;;;;;;5076118;28;20020;-65
2022/01/11 08:24:10;;;;;;;37.60;17.10;;;;;;;;;;5075977;28;20021;-65
2022/01/11 08:26:36;;;;;;;29.33;15.50;;;;;;;;;;5057828;28;20374;-66
2022/01/11 08:29:02;;;;;;;34.50;17.55;;;;;;;;;;5075823;28;20415;-64
2022/01/11 08:31:28;;;;;;;27.77;14.55;;;;;;;;;;5076115;28;20029;-64
2022/01/11 08:33:54;;;;;;;33.15;15.15;;;;;;;;;;5075438;28;20021;-65
2022/01/11 08:36:20;;;;;;;27.05;14.10;;;;;;;;;;5075988;28;20016;-64
2022/01/11 08:38:46;;;;;;;28.42;14.77;;;;;;;;;;5076101;28;20044;-64
2022/01/11 08:41:13;;;;;;;32.45;15.65;;;;;;;;;;5075310;28;20392;-64
2022/01/11 08:43:39;;;;;;;31.55;16.63;;;;;;;;;;5075881;28;20369;-65
2022/01/11 08:46:05;;;;;;;35.80;16.95;;;;;;;;;;5075463;28;20449;-64
2022/01/11 08:48:32;;;;;;;31.25;16.45;;;;;;;;;;5075411;28;20027;-64
2022/01/11 08:50:58;;;;;;;34.72;15.68;;;;;;;;;;5075254;28;20033;-64
2022/01/11 08:53:24;;;;;;;24.35;12.50;;;;;;;;;;5075274;28;20085;-65
2022/01/11 08:55:51;;;;;;;23.77;13.75;;;;;;;;;;5075255;28;20029;-65
2022/01/11 08:58:20;;;;;;;26.38;14.18;;;;;;;;;;5075579;28;20080;-64
2022/01/11 09:00:47;;;;;;;29.23;16.15;;;;;;;;;;5074857;28;20031;-63
2022/01/11 09:03:14;;;;;;;30.60;13.68;;;;;;;;;;5075452;28;20029;-63
2022/01/11 09:05:40;;;;;;;30.13;14.52;;;;;;;;;;5075584;28;20392;-66
2022/01/11 09:08:06;;;;;;;25.83;14.60;;;;;;;;;;5075170;28;20028;-65
2022/01/11 09:10:33;;;;;;;28.17;14.25;;;;;;;;;;5075094;28;20023;-64
2022/01/11 09:12:59;;;;;;;25.27;12.85;;;;;;;;;;5075079;28;20103;-66
2022/01/11 09:15:25;;;;;;;23.13;12.65;;;;;;;;;;5075366;28;20016;-64
2022/01/11 09:17:51;;;;;;;23.55;12.52;;;;;;;;;;5075045;28;20115;-65
2022/01/11 09:20:18;;;;;;;29.42;14.15;;;;;;;;;;5075085;28;20025;-65
2022/01/11 09:22:44;;;;;;;23.40;12.75;;;;;;;;;;5074975;28;20143;-64
2022/01/11 09:25:11;;;;;;;21.63;11.55;;;;;;;;;;5074740;28;20485;-64
2022/01/11 09:27:37;;;;;;;22.20;11.70;;;;;;;;;;5074986;28;20031;-64
2022/01/11 09:30:06;;;;;;;25.65;12.75;;;;;;;;;;5074340;28;20481;-65
2022/01/11 09:32:34;;;;;;;20.10;11.02;;;;;;;;;;5074953;28;20016;-65
2022/01/11 09:35:00;;;;;;;19.70;10.07;;;;;;;;;;5074816;28;20583;-65
2022/01/11 09:37:26;;;;;;;22.40;11.10;;;;;;;;;;5074411;28;20036;-67
2022/01/11 09:39:52;;;;;;;21.85;10.80;;;;;;;;;;5076802;28;20354;-66
2022/01/11 09:42:19;;;;;;;22.83;10.25;;;;;;;;;;5064646;28;20439;-65
2022/01/11 09:44:47;;;;;;;17.60;10.27;;;;;;;;;;5064933;28;20381;-65
2022/01/11 09:47:14;;;;;;;20.42;10.18;;;;;;;;;;5087055;28;20601;-65
2022/01/11 09:49:41;;;;;;;24.10;11.93;;;;;;;;;;5083515;28;20377;-65
2022/01/11 09:52:07;;;;;;;23.05;11.52;;;;;;;;;;5083359;28;20044;-66
2022/01/11 09:54:35;;;;;;;17.90;9.25;;;;;;;;;;5084555;28;20016;-65
2022/01/11 09:57:01;;;;;;;18.17;9.45;;;;;;;;;;5083015;28;20389;-64
2022/01/11 09:59:27;;;;;;;17.38;9.30;;;;;;;;;;5083655;28;20048;-64
2022/01/11 10:01:54;;;;;;;18.40;10.20;;;;;;;;;;5085033;28;20365;-65
2022/01/11 10:04:25;;;;;;;16.73;8.30;;;;;;;;;;5083237;28;20016;-63
2022/01/11 10:06:53;;;;;;;19.92;9.75;;;;;;;;;;5082606;28;20016;-64
2022/01/11 10:09:21;;;;;;;21.08;9.85;;;;;;;;;;5084384;28;20023;-64
2022/01/11 10:11:57;;;;;;;14.63;8.68;;;;;;;;;;5083933;28;20432;-64
2022/01/11 10:14:23;;;;;;;20.88;10.85;;;;;;;;;;5083688;28;20019;-64
2022/01/11 10:16:50;;;;;;;24.30;10.95;;;;;;;;;;5082609;28;20377;-63
2022/01/11 10:19:24;;;;;;;21.15;11.77;;;;;;;;;;5083603;28;20028;-66
2022/01/11 10:21:51;;;;;;;49.03;22.70;;;;;;;;;;5084764;28;20020;-65
2022/01/11 10:24:20;;;;;;;24.75;11.98;;;;;;;;;;5082942;28;20048;-66
2022/01/11 10:26:47;;;;;;;20.00;11.13;;;;;;;;;;5082410;28;20028;-66
2022/01/11 10:29:45;;;;;;;22.08;11.32;;;;;;;;;;5084183;28;20354;-67
2022/01/11 10:32:31;;;;;;;23.52;11.93;;;;;;;;;;5050215;28;20052;-65
2022/01/11 10:34:59;;;;;;;21.88;11.23;;;;;;;;;;5085996;28;20024;-67
2022/01/11 10:37:30;;;;;;;21.75;11.32;;;;;;;;;;5094101;28;20076;-64
2022/01/11 10:39:56;;;;;;;;;;;;;;;;;;5082945;28;20095;-65
2022/01/11 10:42:33;;;;;;;26.10;11.25;;;;;;;;;;5065074;28;19951;-64
2022/01/11 10:45:10;;;;;;;24.08;11.68;;;;;;;;;;5082929;28;20414;-64
2022/01/11 10:47:47;;;;;;;23.80;12.07;;;;;;;;;;5082155;28;20384;-65
2022/01/11 10:50:19;;;;;;;26.20;13.63;;;;;;;;;;5077944;28;20027;-65
2022/01/11 10:52:46;;;;;;;24.02;10.45;;;;;;;;;;5083642;28;20468;-64
2022/01/11 10:55:14;;;;;;;24.70;11.63;;;;;;;;;;5081002;28;20491;-66
2022/01/11 10:57:41;;;;;;;21.08;10.90;;;;;;;;;;5081503;28;20139;-65
2022/01/11 11:00:15;;;;;;;23.63;11.60;;;;;;;;;;5081687;28;20525;-64
2022/01/11 11:02:42;;;;;;;22.52;10.57;;;;;;;;;;5081770;28;20461;-65
2022/01/11 11:05:14;;;;;;;20.70;10.82;;;;;;;;;;5081489;28;20097;-64
2022/01/11 11:07:41;;;;;;;21.73;11.30;;;;;;;;;;5064910;28;20021;-64
2022/01/11 11:10:08;;;;;;;20.45;11.02;;;;;;;;;;5082511;28;20024;-64
2022/01/11 11:12:34;;;;;;;22.75;11.38;;;;;;;;;;5063077;28;20023;-64
2022/01/11 11:15:02;;;;;;;21.48;10.30;;;;;;;;;;5082470;28;20027;-64
2022/01/11 11:17:33;;;;;;;19.48;9.70;;;;;;;;;;5082549;28;20025;-62
2022/01/11 11:20:07;;;;;;;18.58;9.60;;;;;;;;;;5081275;28;20017;-63
2022/01/11 11:22:34;;;;;;;23.25;10.48;;;;;;;;;;5080651;28;20077;-64
2022/01/11 11:25:00;;;;;;;20.50;10.32;;;;;;;;;;5082579;28;20799;-64
2022/01/11 11:27:28;;;;;;;24.17;11.02;;;;;;;;;;5081657;28;20052;-64
2022/01/11 11:29:55;;;;;;;20.38;10.32;;;;;;;;;;5080887;28;20019;-63
2022/01/11 11:32:21;;;;;;;20.10;10.68;;;;;;;;;;5082606;28;20144;-65
2022/01/11 11:34:49;;;;;;;24.67;11.60;;;;;;;;;;5082039;28;20078;-64
2022/01/11 11:37:20;;;;;;;20.98;11.07;;;;;;;;;;5080678;28;20023;-66
2022/01/11 11:39:46;;;;;;;;;;;;;;;;;;5083174;28;20026;-64
2022/01/11 11:42:17;;;;;;;21.75;11.27;;;;;;;;;;5086466;28;19915;-65
2022/01/11 11:44:44;;;;;;;25.13;12.15;;;;;;;;;;5085439;28;20024;-64
2022/01/11 11:47:10;;;;;;;24.45;11.40;;;;;;;;;;5084756;28;20027;-65
2022/01/11 11:49:46;;;;;;;24.25;11.35;;;;;;;;;;5086070;28;20016;-64
2022/01/11 11:52:16;;;;;;;24.25;11.13;;;;;;;;;;5086624;28;20016;-66
2022/01/11 11:54:55;;;;;;;23.48;11.85;;;;;;;;;;5085050;28;20025;-67
2022/01/11 11:57:22;;;;;;;32.25;14.27;;;;;;;;;;5084306;28;20091;-65
2022/01/11 11:59:55;;;;;;;25.38;12.85;;;;;;;;;;5085157;28;20032;-65
2022/01/11 12:02:34;;;;;;;24.75;11.70;;;;;;;;;;5084966;28;20021;-65
2022/01/11 12:05:00;;;;;;;26.48;12.18;;;;;;;;;;5084656;28;20016;-66
2022/01/11 12:07:40;;;;;;;22.25;12.00;;;;;;;;;;5084896;28;20051;-65
2022/01/11 12:10:11;;;;;;;23.77;11.55;;;;;;;;;;5085171;28;20021;-65
2022/01/11 12:12:51;;;;;;;34.50;15.23;;;;;;;;;;5084199;28;20098;-64
2022/01/11 12:15:23;;;;;;;47.75;19.73;;;;;;;;;;5084168;28;20030;-65
2022/01/11 12:18:12;;;;;;;23.75;11.27;;;;;;;;;;5084464;28;20416;-64
2022/01/11 12:20:41;;;;;;;22.88;10.90;;;;;;;;;;5086327;28;20111;-62
2022/01/11 12:23:08;;;;;;;27.70;11.50;;;;;;;;;;5085067;28;20027;-64
2022/01/11 12:25:42;;;;;;;29.25;13.45;;;;;;;;;;5083368;28;20025;-66
2022/01/11 12:28:08;;;;;;;27.98;12.73;;;;;;;;;;5084295;28;20581;-64
2022/01/11 12:30:35;;;;;;;23.30;11.98;;;;;;;;;;5085561;28;20023;-66
2022/01/11 12:33:08;;;;;;;20.33;10.82;;;;;;;;;;5085146;28;20017;-65
2022/01/11 12:35:34;;;;;;;26.15;11.40;;;;;;;;;;5084627;28;20035;-66
2022/01/11 12:38:08;;;;;;;25.88;11.82;;;;;;;;;;5086102;28;20031;-64
2022/01/11 12:40:40;;;;;;;24.85;12.15;;;;;;;;;;5086365;28;20476;-66
2022/01/11 12:43:06;;;;;;;24.30;11.38;;;;;;;;;;5085497;28;20029;-65
2022/01/11 12:45:51;;;;;;;22.90;11.75;;;;;;;;;;5084284;28;20020;-65
2022/01/11 12:48:37;;;;;;;20.13;10.50;;;;;;;;;;5086248;28;20068;-65
2022/01/11 12:51:03;;;;;;;20.65;10.52;;;;;;;;;;5085974;28;20021;-64
2022/01/11 12:53:29;;;;;;;21.00;11.18;;;;;;;;;;5067106;28;20054;-66
2022/01/11 12:55:58;;;;;;;28.27;12.63;;;;;;;;;;5086296;28;20017;-65
2022/01/11 12:58:25;;;;;;;31.92;14.40;;;;;;;;;;5083935;28;20378;-65
2022/01/11 13:00:52;;;;;;;23.15;12.80;;;;;;;;;;5084986;28;20076;-66
2022/01/11 13:03:18;;;;;;;26.80;13.05;;;;;;;;;;5085876;28;20421;-65
2022/01/11 13:05:45;;;;;;;22.45;12.18;;;;;;;;;;5083869;28;20063;-66
2022/01/11 13:08:11;;;;;;;26.27;13.43;;;;;;;;;;5084593;28;20483;-64
2022/01/11 13:10:39;;;;;;;26.73;14.23;;;;;;;;;;5085764;28;20024;-65
2022/01/11 13:13:11;;;;;;;26.05;12.88;;;;;;;;;;5084188;28;20028;-64
2022/01/11 13:15:37;;;;;;;25.25;13.43;;;;;;;;;;5083922;28;20093;-64
2022/01/11 13:18:09;;;;;;;27.55;14.30;;;;;;;;;;5067509;28;20020;-65
2022/01/11 13:20:36;;;;;;;24.48;13.25;;;;;;;;;;5080296;28;20111;-66
2022/01/11 13:25:45;;;;;;;28.85;12.90;;;;;;;;;;5075294;28;20029;-65
2022/01/11 13:28:11;;;;;;;28.33;13.32;;;;;;;;;;5074658;28;20036;-66
2022/01/11 13:30:39;;;;;;;23.48;12.02;;;;;;;;;;5078307;28;20066;-63
2022/01/11 13:33:05;;;;;;;28.73;12.68;;;;;;;;;;5082843;28;20039;-63
2022/01/11 13:35:31;;;;;;;25.15;12.82;;;;;;;;;;5074574;28;20028;-62
2022/01/11 13:38:07;;;;;;;30.55;13.43;;;;;;;;;;5074775;28;20086;-62
2022/01/11 13:40:33;;;;;;;25.75;12.82;;;;;;;;;;5079612;28;20467;-62
2022/01/11 13:43:00;;;;;;;25.30;12.43;;;;;;;;;;5083461;28;20024;-62
2022/01/11 13:45:36;;;;;;;25.17;13.15;;;;;;;;;;5094123;28;20111;-63
2022/01/11 13:48:16;;;;;;;29.23;13.57;;;;;;;;;;5094256;28;20020;-62
2022/01/11 13:50:49;;;;;;;27.55;13.35;;;;;;;;;;5094992;28;20017;-63
2022/01/11 13:53:26;;;;;;;27.88;14.35;;;;;;;;;;5094468;28;20461;-63
2022/01/11 13:55:54;;;;;;;31.10;14.35;;;;;;;;;;5094647;28;20020;-63
2022/01/11 13:58:21;;;;;;;23.02;12.93;;;;;;;;;;5095503;28;20358;-63
2022/01/11 14:00:47;;;;;;;28.35;13.48;;;;;;;;;;5094776;28;20020;-63
2022/01/11 14:03:20;;;;;;;27.00;13.70;;;;;;;;;;5093515;28;20338;-63
2022/01/11 14:05:47;;;;;;;30.65;15.15;;;;;;;;;;5094733;28;20023;-63
2022/01/11 14:08:13;;;;;;;30.60;14.40;;;;;;;;;;5094699;28;20046;-62
2022/01/11 14:10:52;;;;;;;26.58;14.60;;;;;;;;;;5093739;28;20024;-62
2022/01/11 14:13:18;;;;;;;26.23;13.57;;;;;;;;;;5094941;28;20028;-62
2022/01/11 14:15:46;;;;;;;25.92;13.27;;;;;;;;;;5093738;28;20384;-63
2022/01/11 14:18:12;;;;;;;32.42;14.90;;;;;;;;;;5094248;28;20032;-62
2022/01/11 14:20:41;;;;;;;27.02;14.80;;;;;;;;;;5094834;28;20115;-63
2022/01/11 14:23:17;;;;;;;25.75;14.38;;;;;;;;;;5094113;28;20032;-62
2022/01/11 14:25:49;;;;;;;33.38;15.68;;;;;;;;;;5093959;28;20016;-63